createdAt,value
2023-11-04T00:01:07.635Z,28.92
2023-11-04T00:03:45.679Z,30.25
2023-11-04T00:06:16.619Z,30.52
2023-11-04T00:08:44.073Z,24.15
2023-11-04T00:11:12.180Z,25.95
2023-11-04T00:13:40.319Z,28.58
2023-11-04T00:16:08.965Z,24.63
2023-11-04T00:18:37.260Z,29.05
2023-11-04T00:21:07.526Z,28.90
2023-11-04T00:23:35.229Z,25.05
2023-11-04T00:26:03.270Z,31.35
2023-11-04T00:28:31.316Z,28.48
2023-11-04T00:30:59.542Z,26.70
2023-11-04T00:33:28.325Z,29.13
2023-11-04T00:35:56.203Z,32.80
2023-11-04T00:38:25.671Z,32.15
2023-11-04T00:40:54.289Z,29.63
2023-11-04T00:43:22.403Z,27.70
2023-11-04T00:45:49.877Z,30.85
2023-11-04T00:48:17.584Z,31.75
2023-11-04T00:50:45.132Z,25.10
2023-11-04T00:53:12.675Z,27.73
2023-11-04T00:55:42.162Z,28.02
2023-11-04T00:58:10.852Z,25.15
2023-11-04T01:00:38.922Z,28.52
2023-11-04T01:03:07.075Z,35.75
2023-11-04T01:05:34.598Z,27.92
2023-11-04T01:08:03.259Z,32.20
2023-11-04T01:10:31.394Z,28.25
2023-11-04T01:13:00.368Z,27.02
2023-11-04T01:15:28.581Z,26.77
2023-11-04T01:17:56.181Z,26.48
2023-11-04T01:20:23.855Z,27.85
2023-11-04T01:22:51.625Z,28.70
2023-11-04T01:25:19.109Z,34.17
2023-11-04T01:27:46.708Z,33.05
2023-11-04T01:30:17.041Z,36.65
2023-11-04T01:32:44.767Z,28.80
2023-11-04T01:35:12.449Z,28.02
2023-11-04T01:37:40.055Z,42.78
2023-11-04T01:40:12.425Z,42.30
2023-11-04T01:42:43.464Z,36.88
2023-11-04T01:45:11.171Z,48.92
2023-11-04T01:47:40.355Z,37.53
2023-11-04T01:50:09.822Z,25.73
2023-11-04T01:52:39.208Z,23.05
2023-11-04T01:55:09.684Z,24.08
2023-11-04T01:57:38.101Z,24.75
2023-11-04T02:00:06.905Z,25.45
2023-11-04T02:02:43.222Z,26.08
2023-11-04T02:05:12.032Z,22.50
2023-11-04T02:07:39.634Z,24.30
2023-11-04T02:10:08.079Z,24.42
2023-11-04T02:12:36.167Z,23.17
2023-11-04T02:15:03.899Z,21.42
2023-11-04T02:17:31.568Z,21.13
2023-11-04T02:20:02.390Z,46.50
2023-11-04T02:22:31.546Z,40.42
2023-11-04T02:27:27.353Z,26.45
2023-11-04T02:29:54.938Z,24.77
2023-11-04T02:32:22.909Z,26.15
2023-11-04T02:34:50.470Z,33.30
2023-11-04T02:37:18.122Z,20.27
2023-11-04T02:39:47.161Z,21.27
2023-11-04T02:42:14.763Z,22.05
2023-11-04T02:44:42.362Z,19.58
2023-11-04T02:47:09.951Z,21.20
2023-11-04T02:49:37.412Z,23.60
2023-11-04T02:52:09.402Z,25.02
2023-11-04T02:54:39.032Z,24.00
2023-11-04T02:57:08.030Z,26.98
2023-11-04T02:59:36.622Z,22.80
2023-11-04T03:02:05.085Z,15.52
2023-11-04T03:04:32.698Z,15.60
2023-11-04T03:07:00.283Z,13.57
2023-11-04T03:09:27.867Z,14.50
2023-11-04T03:11:55.438Z,13.27
2023-11-04T03:14:24.460Z,10.98
2023-11-04T03:16:53.254Z,13.07
2023-11-04T03:19:20.890Z,13.40
2023-11-04T03:21:48.490Z,14.35
2023-11-04T03:24:16.196Z,13.52
2023-11-04T03:26:44.777Z,13.90
2023-11-04T03:29:12.818Z,16.45
2023-11-04T03:31:42.070Z,16.40
2023-11-04T03:34:10.832Z,16.33
2023-11-04T03:36:39.040Z,17.60
2023-11-04T03:39:06.497Z,16.80
2023-11-04T03:41:35.192Z,17.38
2023-11-04T03:44:03.264Z,21.17
2023-11-04T03:46:30.738Z,18.98
2023-11-04T03:49:00.879Z,20.00
2023-11-04T03:51:29.053Z,19.60
2023-11-04T03:53:56.763Z,19.15
2023-11-04T03:56:25.424Z,20.83
2023-11-04T03:58:53.442Z,20.00
2023-11-04T04:01:20.953Z,18.45
2023-11-04T04:03:49.642Z,24.23
2023-11-04T04:06:19.264Z,20.58
2023-11-04T04:11:15.270Z,17.23
2023-11-04T04:13:43.324Z,20.65
2023-11-04T04:16:11.696Z,19.77
2023-11-04T04:18:39.323Z,19.98
2023-11-04T04:21:07.581Z,16.20
2023-11-04T04:23:36.578Z,19.45
2023-11-04T04:26:05.217Z,20.10
2023-11-04T04:28:32.645Z,19.67
2023-11-04T04:31:01.158Z,16.98
2023-11-04T04:33:29.825Z,18.95
2023-11-04T04:35:57.298Z,17.38
2023-11-04T04:38:25.484Z,17.75
2023-11-04T04:40:55.514Z,20.95
2023-11-04T04:43:23.538Z,18.15
2023-11-04T04:45:51.000Z,18.67
2023-11-04T04:48:19.672Z,15.65
2023-11-04T04:50:47.687Z,18.00
2023-11-04T04:53:15.177Z,21.20
2023-11-04T04:55:42.838Z,15.98
2023-11-04T04:58:11.960Z,16.35
2023-11-04T05:00:39.640Z,17.30
2023-11-04T05:03:07.193Z,15.15
2023-11-04T05:05:35.365Z,16.60
2023-11-04T05:08:04.066Z,16.23
2023-11-04T05:10:31.540Z,17.13
2023-11-04T05:12:59.579Z,16.30
2023-11-04T05:15:28.707Z,20.38
2023-11-04T05:17:56.194Z,25.30
2023-11-04T05:20:23.823Z,18.27
2023-11-04T05:22:51.572Z,18.92
2023-11-04T05:25:19.027Z,16.73
2023-11-04T05:27:46.553Z,15.20
2023-11-04T05:30:14.991Z,16.67
2023-11-04T05:32:43.996Z,17.38
2023-11-04T05:35:12.040Z,15.98
2023-11-04T05:37:40.082Z,17.05
2023-11-04T05:40:09.176Z,15.23
2023-11-04T05:42:37.323Z,15.30
2023-11-04T05:45:06.128Z,16.77
2023-11-04T05:47:34.222Z,15.93
2023-11-04T05:50:04.111Z,17.90
2023-11-04T05:52:32.710Z,15.40
2023-11-04T05:55:00.325Z,19.75
2023-11-04T05:57:29.226Z,17.67
2023-11-04T05:59:57.471Z,16.20
2023-11-04T06:02:24.939Z,13.85
2023-11-04T06:04:52.602Z,16.65
2023-11-04T06:07:22.308Z,17.85
2023-11-04T06:09:49.837Z,21.52
2023-11-04T06:12:17.367Z,18.27
2023-11-04T06:14:46.569Z,16.70
2023-11-04T06:17:14.016Z,16.67
2023-11-04T06:19:41.676Z,21.40
2023-11-04T06:22:09.339Z,17.88
2023-11-04T06:24:39.791Z,14.75
2023-11-04T06:27:08.020Z,17.30
2023-11-04T06:29:36.678Z,17.08
2023-11-04T06:32:05.061Z,13.57
2023-11-04T06:34:32.598Z,18.05
2023-11-04T06:37:01.269Z,14.52
2023-11-04T06:39:29.313Z,16.58
2023-11-04T06:41:58.215Z,19.08
2023-11-04T06:44:26.811Z,22.05
2023-11-04T06:46:54.905Z,16.60
2023-11-04T06:49:22.499Z,14.90
2023-11-04T06:51:50.240Z,19.65
2023-11-04T06:54:17.892Z,16.27
2023-11-04T06:56:45.458Z,14.68
2023-11-04T06:59:16.158Z,17.00
2023-11-04T07:01:49.084Z,19.88
2023-11-04T07:04:16.668Z,16.52
2023-11-04T07:06:44.316Z,18.92
2023-11-04T07:09:12.495Z,19.95
2023-11-04T07:11:40.621Z,21.73
2023-11-04T07:14:08.726Z,21.83
2023-11-04T07:16:38.349Z,20.73
2023-11-04T07:19:06.222Z,19.45
2023-11-04T07:21:33.954Z,17.10
2023-11-04T07:24:01.593Z,21.67
2023-11-04T07:26:29.696Z,20.98
2023-11-04T07:28:57.826Z,16.70
2023-11-04T07:31:25.904Z,19.88
2023-11-04T07:33:55.838Z,19.63
2023-11-04T07:36:24.714Z,18.10
2023-11-04T07:38:53.065Z,20.57
2023-11-04T07:41:21.349Z,29.75
2023-11-04T07:43:49.552Z,23.50
2023-11-04T07:46:17.777Z,20.98
2023-11-04T07:48:45.563Z,21.85
2023-11-04T07:51:14.722Z,26.35
2023-11-04T07:53:42.847Z,23.27
2023-11-04T07:56:11.641Z,23.20
2023-11-04T07:58:39.278Z,21.10
2023-11-04T08:01:07.201Z,21.40
2023-11-04T08:03:36.125Z,18.17
2023-11-04T08:06:03.789Z,19.38
2023-11-04T08:08:33.431Z,23.02
2023-11-04T08:11:02.163Z,21.80
2023-11-04T08:13:29.725Z,26.02
2023-11-04T08:15:58.295Z,19.92
2023-11-04T08:18:26.159Z,19.10
2023-11-04T08:20:53.747Z,21.83
2023-11-04T08:23:21.330Z,23.05
2023-11-04T08:25:51.013Z,19.27
2023-11-04T08:28:19.176Z,17.98
2023-11-04T08:30:46.722Z,24.58
2023-11-04T08:33:15.600Z,21.02
2023-11-04T08:35:43.726Z,22.07
2023-11-04T08:38:11.260Z,22.08
2023-11-04T08:40:39.937Z,24.65
2023-11-04T08:43:09.588Z,19.33
2023-11-04T08:45:37.209Z,24.52
2023-11-04T08:48:05.792Z,16.80
2023-11-04T08:50:33.974Z,23.45
2023-11-04T08:53:01.480Z,24.85
2023-11-04T08:55:29.155Z,24.02
2023-11-04T08:57:56.876Z,20.90
2023-11-04T09:00:25.900Z,25.52
2023-11-04T09:02:53.583Z,18.55
2023-11-04T09:05:28.556Z,19.15
2023-11-04T09:10:28.163Z,21.38
2023-11-04T09:12:55.842Z,22.73
2023-11-04T09:15:25.838Z,20.65
2023-11-04T09:17:53.500Z,21.08
2023-11-04T09:20:21.229Z,18.63
2023-11-04T09:22:49.091Z,20.27
2023-11-04T09:25:16.685Z,28.77
2023-11-04T09:27:44.313Z,22.55
2023-11-04T09:30:13.585Z,23.95
2023-11-04T09:32:42.605Z,22.38
2023-11-04T09:35:10.539Z,25.70
2023-11-04T09:37:38.817Z,62.95
2023-11-04T09:40:07.472Z,65.05
2023-11-04T09:42:36.265Z,51.67
2023-11-04T09:45:05.476Z,73.87
2023-11-04T09:47:33.408Z,60.13
2023-11-04T09:50:02.475Z,41.75
2023-11-04T09:52:32.820Z,42.22
2023-11-04T09:57:30.165Z,32.53
2023-11-04T10:00:00.369Z,32.53
2023-11-04T10:02:27.915Z,25.55
2023-11-04T10:04:55.471Z,37.33
2023-11-04T10:07:25.873Z,43.80
2023-11-04T10:09:54.235Z,26.63
2023-11-04T10:12:21.893Z,18.85
2023-11-04T10:14:49.621Z,28.90
2023-11-04T10:17:17.431Z,29.98
2023-11-04T10:19:45.029Z,30.25
2023-11-04T10:22:12.904Z,22.02
2023-11-04T10:24:42.096Z,26.65
2023-11-04T10:27:09.614Z,21.35
2023-11-04T10:29:37.782Z,32.58
2023-11-04T10:32:08.183Z,27.27
2023-11-04T10:34:38.072Z,24.05
2023-11-04T10:37:14.679Z,23.63
2023-11-04T10:39:48.758Z,22.25
2023-11-04T10:42:19.317Z,21.10
2023-11-04T10:44:49.015Z,22.42
2023-11-04T10:49:57.796Z,17.08
2023-11-04T10:52:27.752Z,21.48
2023-11-04T10:55:05.471Z,25.92
2023-11-04T10:57:37.840Z,27.15
2023-11-04T11:00:09.461Z,21.23
2023-11-04T11:02:39.828Z,28.88
2023-11-04T11:05:11.123Z,20.17
2023-11-04T11:07:40.100Z,19.58
2023-11-04T11:10:10.426Z,19.80
2023-11-04T11:12:46.356Z,20.63
2023-11-04T11:15:14.245Z,21.40
2023-11-04T11:17:41.838Z,17.10
2023-11-04T11:20:27.306Z,16.38
2023-11-04T11:22:56.263Z,20.40
2023-11-04T11:25:32.219Z,19.83
2023-11-04T11:28:00.905Z,18.42
2023-11-04T11:30:38.269Z,26.60
2023-11-04T11:33:07.587Z,20.73
2023-11-04T11:35:53.630Z,22.13
2023-11-04T11:38:22.072Z,22.65
2023-11-04T11:40:52.902Z,19.27
2023-11-04T11:43:22.050Z,20.92
2023-11-04T11:45:50.206Z,22.73
2023-11-04T11:48:18.156Z,25.88
2023-11-04T11:50:47.570Z,18.75
2023-11-04T11:53:16.539Z,25.27
2023-11-04T11:55:44.098Z,26.98
2023-11-04T11:58:14.296Z,31.15
2023-11-04T12:00:43.054Z,20.55
2023-11-04T12:03:10.757Z,19.48
2023-11-04T12:05:39.555Z,24.17
2023-11-04T12:08:07.650Z,25.50
2023-11-04T12:10:35.729Z,24.67
2023-11-04T12:13:03.445Z,21.00
2023-11-04T12:15:32.553Z,20.45
2023-11-04T12:18:00.307Z,21.42
2023-11-04T12:20:29.226Z,24.08
2023-11-04T12:22:57.790Z,26.83
2023-11-04T12:25:26.852Z,22.83
2023-11-04T12:27:54.769Z,27.42
2023-11-04T12:30:22.360Z,26.25
2023-11-04T12:32:52.096Z,21.60
2023-11-04T12:37:48.672Z,25.70
2023-11-04T12:42:46.750Z,22.55
2023-11-04T12:45:15.715Z,25.10
2023-11-04T12:47:43.795Z,19.90
2023-11-04T12:50:14.214Z,22.63
2023-11-04T12:52:45.219Z,22.33
2023-11-04T12:55:13.226Z,24.05
2023-11-04T12:57:41.439Z,22.35
2023-11-04T13:00:10.594Z,21.63
2023-11-04T13:02:38.634Z,22.05
2023-11-04T13:05:08.084Z,22.02
2023-11-04T13:07:37.834Z,21.20
2023-11-04T13:10:06.348Z,17.92
2023-11-04T13:12:34.277Z,16.98
2023-11-04T13:15:02.011Z,17.15
2023-11-04T13:17:29.649Z,17.33
2023-11-04T13:19:57.363Z,19.92
2023-11-04T13:22:25.037Z,19.70
2023-11-04T13:24:54.043Z,16.77
2023-11-04T13:27:21.717Z,15.02
2023-11-04T13:29:49.478Z,16.95
2023-11-04T13:32:17.071Z,15.00
2023-11-04T13:34:45.843Z,18.50
2023-11-04T13:37:14.038Z,15.07
2023-11-04T13:39:41.631Z,17.70
2023-11-04T13:42:11.794Z,16.63
2023-11-04T13:44:40.008Z,13.35
2023-11-04T13:47:07.884Z,20.15
2023-11-04T13:49:36.193Z,17.38
2023-11-04T13:52:04.401Z,16.75
2023-11-04T13:54:32.160Z,19.05
2023-11-04T13:57:00.073Z,17.70
2023-11-04T13:59:29.275Z,17.10
2023-11-04T14:01:57.053Z,18.08
2023-11-04T14:04:25.963Z,19.80
2023-11-04T14:06:53.544Z,19.90
2023-11-04T14:09:21.633Z,14.82
2023-11-04T14:11:50.481Z,18.92
2023-11-04T14:14:18.096Z,14.00
2023-11-04T14:16:47.667Z,16.73
2023-11-04T14:19:15.354Z,21.52
2023-11-04T14:21:44.202Z,20.38
2023-11-04T14:24:11.847Z,21.00
2023-11-04T14:26:39.972Z,18.60
2023-11-04T14:29:08.100Z,17.67
2023-11-04T14:31:36.207Z,20.70
2023-11-04T14:34:05.860Z,17.67
2023-11-04T14:36:33.970Z,16.92
2023-11-04T14:39:02.070Z,17.75
2023-11-04T14:41:30.784Z,16.83
2023-11-04T14:43:58.365Z,16.92
2023-11-04T14:46:26.480Z,22.80
2023-11-04T14:48:54.241Z,14.18
2023-11-04T14:51:24.377Z,18.40
2023-11-04T14:53:52.908Z,16.27
2023-11-04T14:56:20.543Z,15.35
2023-11-04T14:58:48.219Z,18.88
2023-11-04T15:01:15.868Z,16.20
2023-11-04T15:03:43.636Z,15.80
2023-11-04T15:06:11.447Z,15.63
2023-11-04T15:08:40.526Z,14.82
2023-11-04T15:11:08.633Z,21.42
2023-11-04T15:13:36.834Z,17.35
2023-11-04T15:16:06.021Z,17.73
2023-11-04T15:18:33.849Z,16.42
2023-11-04T15:21:01.491Z,14.80
2023-11-04T15:23:29.268Z,16.13
2023-11-04T15:25:58.863Z,19.42
2023-11-04T15:28:27.063Z,14.52
2023-11-04T15:30:55.533Z,17.05
2023-11-04T15:33:23.678Z,17.08
2023-11-04T15:35:51.887Z,19.50
2023-11-04T15:38:20.310Z,17.27
2023-11-04T15:40:48.467Z,16.05
2023-11-04T15:43:18.280Z,18.70
2023-11-04T15:45:46.032Z,18.88
2023-11-04T15:48:14.128Z,16.95
2023-11-04T15:50:42.277Z,19.45
2023-11-04T15:53:10.410Z,19.05
2023-11-04T15:55:38.128Z,18.90
2023-11-04T15:58:05.893Z,16.73
2023-11-04T16:00:35.015Z,17.58
2023-11-04T16:03:02.806Z,17.55
2023-11-04T16:05:30.486Z,19.90
2023-11-04T16:07:58.144Z,23.17
2023-11-04T16:10:26.012Z,15.77
2023-11-04T16:12:53.815Z,19.75
2023-11-04T16:15:22.126Z,16.45
2023-11-04T16:17:51.217Z,21.33
2023-11-04T16:20:18.913Z,20.20
2023-11-04T16:22:46.647Z,21.73
2023-11-04T16:25:14.588Z,17.40
2023-11-04T16:27:42.614Z,17.17
2023-11-04T16:30:11.671Z,16.42
2023-11-04T16:32:39.349Z,17.95
2023-11-04T16:35:09.113Z,17.13
2023-11-04T16:40:04.938Z,17.90
2023-11-04T16:42:32.666Z,18.05
2023-11-04T16:45:00.820Z,21.20
2023-11-04T16:47:28.590Z,18.73
2023-11-04T16:49:56.259Z,17.30
2023-11-04T16:52:25.245Z,15.73
2023-11-04T16:54:54.022Z,20.27
2023-11-04T16:57:22.090Z,17.80
2023-11-04T16:59:50.213Z,18.45
2023-11-04T17:02:18.946Z,18.45
2023-11-04T17:04:46.696Z,18.67
2023-11-04T17:07:14.924Z,17.58
2023-11-04T17:09:44.201Z,17.60
2023-11-04T17:12:11.728Z,17.33
2023-11-04T17:14:39.298Z,18.48
2023-11-04T17:17:06.979Z,17.45
2023-11-04T17:19:35.081Z,21.05
2023-11-04T17:22:03.032Z,18.20
2023-11-04T17:24:31.279Z,18.17
2023-11-04T17:27:00.260Z,17.48
2023-11-04T17:29:28.417Z,18.48
2023-11-04T17:31:58.377Z,17.30
2023-11-04T17:34:26.301Z,18.02
2023-11-04T17:36:54.601Z,19.17
2023-11-04T17:39:23.660Z,19.13
2023-11-04T17:41:51.306Z,18.30
2023-11-04T17:44:21.105Z,18.63
2023-11-04T17:46:49.842Z,21.83
2023-11-04T17:49:17.448Z,24.50
2023-11-04T17:51:45.566Z,17.00
2023-11-04T17:54:14.318Z,22.13
2023-11-04T17:56:41.844Z,18.45
2023-11-04T17:59:10.549Z,18.60
2023-11-04T18:01:40.660Z,18.23
2023-11-04T18:04:08.300Z,17.98
2023-11-04T18:06:35.920Z,16.42
2023-11-04T18:09:04.771Z,19.83
2023-11-04T18:11:32.329Z,20.73
2023-11-04T18:14:00.499Z,19.08
2023-11-04T18:16:28.776Z,16.40
2023-11-04T18:18:57.948Z,19.42
2023-11-04T18:21:25.698Z,22.48
2023-11-04T18:23:54.411Z,20.00
2023-11-04T18:26:22.574Z,21.57
2023-11-04T18:28:50.081Z,16.02
2023-11-04T18:31:17.867Z,14.25
2023-11-04T18:33:45.621Z,17.92
2023-11-04T18:36:14.681Z,16.67
2023-11-04T18:38:43.422Z,17.13
2023-11-04T18:41:11.570Z,21.10
2023-11-04T18:43:39.067Z,21.02
2023-11-04T18:46:08.147Z,20.48
2023-11-04T18:48:36.461Z,15.35
2023-11-04T18:51:05.183Z,15.05
2023-11-04T18:53:34.298Z,17.65
2023-11-04T18:56:01.961Z,14.95
2023-11-04T18:58:29.776Z,16.45
2023-11-04T19:00:58.031Z,18.38
2023-11-04T19:03:25.661Z,16.95
2023-11-04T19:05:53.768Z,15.93
2023-11-04T19:08:22.483Z,14.57
2023-11-04T19:10:51.538Z,17.85
2023-11-04T19:15:47.187Z,16.90
2023-11-04T19:18:14.891Z,15.43
2023-11-04T19:20:42.525Z,18.02
2023-11-04T19:23:10.195Z,16.42
2023-11-04T19:25:37.872Z,18.30
2023-11-04T19:28:07.797Z,17.38
2023-11-04T19:30:36.071Z,15.98
2023-11-04T19:33:04.001Z,14.35
2023-11-04T19:35:31.818Z,14.63
2023-11-04T19:38:00.586Z,16.13
2023-11-04T19:40:28.804Z,15.63
2023-11-04T19:42:56.334Z,16.15
2023-11-04T19:45:26.520Z,15.82
2023-11-04T19:47:55.091Z,15.95
2023-11-04T19:50:23.440Z,15.18
2023-11-04T19:52:51.536Z,16.23
2023-11-04T19:55:19.746Z,15.27
2023-11-04T19:57:48.590Z,14.30
2023-11-04T20:00:16.951Z,13.63
2023-11-04T20:02:46.134Z,18.67
2023-11-04T20:05:14.034Z,13.63
2023-11-04T20:07:41.791Z,14.68
2023-11-04T20:10:09.800Z,18.85
2023-11-04T20:12:37.432Z,17.92
2023-11-04T20:15:05.829Z,18.15
2023-11-04T20:17:33.470Z,16.08
2023-11-04T20:20:02.544Z,15.35
2023-11-04T20:22:30.267Z,17.42
2023-11-04T20:24:58.143Z,18.27
2023-11-04T20:27:26.309Z,16.80
2023-11-04T20:29:55.072Z,17.35
2023-11-04T20:32:22.616Z,17.33
2023-11-04T20:34:50.861Z,15.77
2023-11-04T20:37:20.560Z,15.00
2023-11-04T20:39:48.088Z,16.58
2023-11-04T20:42:15.736Z,16.55
2023-11-04T20:44:43.694Z,16.80
2023-11-04T20:47:11.226Z,18.70
2023-11-04T20:49:39.336Z,18.38
2023-11-04T20:52:07.253Z,15.73
2023-11-04T20:54:36.276Z,16.42
2023-11-04T20:57:04.272Z,19.65
2023-11-04T20:59:32.439Z,17.98
2023-11-04T21:01:59.975Z,17.83
2023-11-04T21:04:28.224Z,17.00
2023-11-04T21:06:57.132Z,17.95
2023-11-04T21:09:24.714Z,18.38
2023-11-04T21:11:54.283Z,17.00
2023-11-04T21:14:23.171Z,18.55
2023-11-04T21:16:50.727Z,16.70
2023-11-04T21:19:18.339Z,19.08
2023-11-04T21:21:46.069Z,20.77
2023-11-04T21:24:13.578Z,19.83
2023-11-04T21:26:41.690Z,20.67
2023-11-04T21:29:11.869Z,18.70
2023-11-04T21:31:39.422Z,21.17
2023-11-04T21:34:06.962Z,19.92
2023-11-04T21:36:35.700Z,21.63
2023-11-04T21:39:03.235Z,20.80
2023-11-04T21:41:31.498Z,19.88
2023-11-04T21:44:00.377Z,19.13
2023-11-04T21:46:29.434Z,20.30
2023-11-04T21:48:57.220Z,20.27
2023-11-04T21:51:25.004Z,24.00
2023-11-04T21:53:52.568Z,24.20
2023-11-04T21:56:20.693Z,24.95
2023-11-04T21:58:48.625Z,21.23
2023-11-04T22:01:16.163Z,23.17
2023-11-04T22:03:45.297Z,23.58
2023-11-04T22:06:13.746Z,24.98
2023-11-04T22:08:42.780Z,26.27
2023-11-04T22:11:12.082Z,23.27
2023-11-04T22:13:40.769Z,25.55
2023-11-04T22:16:08.591Z,26.48
2023-11-04T22:18:36.814Z,22.95
2023-11-04T22:21:06.732Z,28.02
2023-11-04T22:26:01.454Z,27.20
2023-11-04T22:28:29.265Z,28.13
2023-11-04T22:30:56.844Z,27.33
2023-11-04T22:33:24.495Z,25.55
2023-11-04T22:35:52.380Z,27.25
2023-11-04T22:38:21.457Z,23.25
2023-11-04T22:40:49.631Z,26.88
2023-11-04T22:43:19.014Z,23.65
2023-11-04T22:45:46.546Z,28.27
2023-11-04T22:48:14.354Z,22.67
2023-11-04T22:50:42.167Z,27.75
2023-11-04T22:53:09.692Z,24.55
2023-11-04T22:55:40.193Z,25.67
2023-11-04T22:58:09.048Z,23.13
2023-11-04T23:00:36.616Z,28.17
2023-11-04T23:03:04.422Z,25.58
2023-11-04T23:05:32.988Z,22.20
2023-11-04T23:08:00.730Z,31.50
2023-11-04T23:10:29.137Z,24.45
2023-11-04T23:12:59.420Z,27.02
2023-11-04T23:17:55.756Z,26.92
2023-11-04T23:20:23.823Z,26.02
2023-11-04T23:22:51.826Z,25.77
2023-11-04T23:25:21.944Z,28.10
2023-11-04T23:27:51.541Z,20.90
2023-11-04T23:30:21.522Z,23.73
2023-11-04T23:32:49.313Z,23.98
2023-11-04T23:35:17.241Z,27.27
2023-11-04T23:37:45.452Z,24.02
2023-11-04T23:40:13.902Z,25.58
2023-11-04T23:42:41.520Z,26.45
2023-11-04T23:45:09.885Z,23.60
2023-11-04T23:47:39.030Z,26.58
2023-11-04T23:50:08.179Z,24.02
2023-11-04T23:52:35.865Z,24.10
2023-11-04T23:55:04.444Z,23.40
2023-11-04T23:57:33.325Z,27.58
